Boothville, LA (70038)

1:48 PM CDT on September 01, 2014 (GMT -0500)
Rlc Heliport | Change Station
CLOSE
Current Station
Personal Weather Station
Location: Boothville-Venice, LA
Elevation: 0 ft
Nearby Weather Stations

Elev 0 ft 29.29 °N, 89.37 °W | Updated 1 minute ago

Scattered Clouds
Scattered Clouds
89.8 °F
Feels Like 100 °F
N
13.0
Wind Variable Wind from SSE

Today
High -- | Low -- °F
--% Chance of Precip.
Yesterday
High -- | Low -- °F
Precip. -- in
6:35 AM 7:19 PM
Waxing Crescent, 43% visible
Pressure 30.05 in
Visibility 10.0 miles
Clouds Scattered Clouds 3500 ft
Heat Index 100 °F
Dew Point 74 °F
Humidity 61%
Rainfall 0.18 in
Snow Depth Not available.
UV 11 out of 12
Pollen 8.50 out of 12
Air Quality Not available.
Flu Activity Not available.
SPECI K1B7 011753Z 15011KT 10SM SCT035 31/25 A3005

More Conditions Fewer Conditions

Pressure 30.05 in
Visibility 10.0 miles
Clouds Scattered Clouds 3500 ft
Heat Index 100 °F
Dew Point 74 °F
Humidity 61%
Rainfall 0.18 in
Snow Depth Not available.
UV 11 out of 12
Pollen 8.50 out of 12
Air Quality Not available.
Flu Activity Not available.
SPECI K1B7 011753Z 15011KT 10SM SCT035 31/25 A3005

More Conditions Fewer Conditions

10-Day Weather Forecast

Almanac

Astronomy

Sep. 01, 2014 Rise Set
Actual Time 6:35 AM CDT 7:19 PM CDT
Civil Twilight 6:11 AM CDT 7:43 PM CDT
Nautical Twilight 5:42 AM CDT 8:12 PM CDT
Astronomical Twilight 5:13 AM CDT 8:41 PM CDT
Moon 12:50 PM CDT 11:52 PM CDT
Length of Visible Light 13h 32m
Length of Day
12h 44m
Tomorrow will be 1m 41s shorter.
Waxing Crescent, 43% of the Moon is Illuminated
Today
Waxing Crescent
Sep 2
First Quarter
Sep 8
Full
Sep 15
Last Quarter
Sep 24
New

Today's Extremes

State Highs State Lows

Community

WunderPhotos

Upload Photos

1,749,359 photos uploaded!

Nearby

Snow Depth

Station Depth Elevation
No new snow has been reported.

Earthquake Activity

City Distance Mag. Time & Date
No recent earthquake activity has been reported nearby.
Minimum magnitude displayed is 2.5.

Coastal Water Temperatures

Place Temperature
Shell Beach, LA 81.0 °F
Grand Isle, LA 84.0 °F
New Canal, LA 82.0 °F
Pilot's Station East, SW Pass, LA 91.0 °F

Nearby Weather Stations